Time;durP1;ratioP1;P1;durP2;ratioP2;P2;SDS_P1;SDS_P2;PMS_P1;PMS_P2;Temp;Humidity;BMP_temperature;BMP_pressure;BME280_temperature;BME280_humidity;BME280_pressure;Samples;Min_cycle;Max_cycle;Signal;HPM_P1;HPM_P2
2021/05/21 00:00:29;;;;;;;2.53;2.15;;;12.80;99.90;;;;;;4952495;29;20031;-74
2021/05/21 00:02:55;;;;;;;4.47;2.40;;;12.90;99.90;;;;;;4951033;29;20539;-80
2021/05/21 00:05:21;;;;;;;3.17;2.35;;;13.00;99.90;;;;;;4952510;29;20039;-82
2021/05/21 00:07:46;;;;;;;3.22;2.45;;;13.30;99.90;;;;;;4952587;29;20099;-77
2021/05/21 00:10:12;;;;;;;2.80;2.20;;;13.50;99.90;;;;;;4952806;28;20444;-77
2021/05/21 00:12:41;;;;;;;3.10;2.40;;;13.10;99.90;;;;;;4953667;28;20551;-84
2021/05/21 00:15:08;;;;;;;2.40;2.10;;;13.00;99.90;;;;;;4956087;29;20034;-74
2021/05/21 00:17:33;;;;;;;3.22;2.20;;;13.10;99.90;;;;;;4955724;29;20035;-73
2021/05/21 00:19:59;;;;;;;2.38;2.17;;;13.30;99.90;;;;;;4955463;29;20057;-76
2021/05/21 00:22:25;;;;;;;3.33;2.50;;;13.30;99.90;;;;;;4955798;29;20063;-78
2021/05/21 00:24:51;;;;;;;2.30;2.10;;;13.40;99.90;;;;;;4956360;28;20106;-84
2021/05/21 00:27:17;;;;;;;2.60;2.10;;;13.40;99.90;;;;;;4955685;29;20070;-85
2021/05/21 00:29:43;;;;;;;2.30;2.10;;;13.50;99.90;;;;;;4956063;28;20027;-83
2021/05/21 00:32:09;;;;;;;4.00;1.98;;;13.30;99.90;;;;;;4956390;29;20046;-82
2021/05/21 00:34:35;;;;;;;2.53;2.33;;;12.90;99.90;;;;;;4955947;28;20415;-76
2021/05/21 00:37:01;;;;;;;2.60;1.95;;;13.30;99.90;;;;;;4955572;29;20483;-77
2021/05/21 00:39:27;;;;;;;2.15;1.95;;;13.30;99.90;;;;;;4956054;29;20042;-82
2021/05/21 00:41:52;;;;;;;2.22;2.03;;;13.10;99.90;;;;;;4955380;29;20039;-76
2021/05/21 00:44:18;;;;;;;2.10;1.90;;;13.00;99.90;;;;;;4955682;29;20106;-76
2021/05/21 00:46:47;;;;;;;3.75;2.22;;;13.00;99.90;;;;;;4955048;29;20023;-74
2021/05/21 00:49:22;;;;;;;2.20;2.00;;;13.10;99.90;;;;;;4955677;28;20032;-76
2021/05/21 00:51:48;;;;;;;2.45;2.10;;;12.90;99.90;;;;;;4955310;28;20435;-77
2021/05/21 00:54:16;;;;;;;2.10;1.90;;;12.90;99.90;;;;;;4955176;29;20495;-78
2021/05/21 00:56:43;;;;;;;2.20;2.00;;;12.80;99.90;;;;;;4954931;28;20031;-75
2021/05/21 00:59:09;;;;;;;2.17;1.98;;;12.90;99.90;;;;;;4955425;28;20398;-76
2021/05/21 01:01:35;;;;;;;2.00;1.90;;;12.90;99.90;;;;;;4955271;28;20714;-74
2021/05/21 01:04:00;;;;;;;2.50;2.30;;;12.70;99.90;;;;;;4955637;28;20035;-79
2021/05/21 01:06:26;;;;;;;2.22;2.00;;;12.70;99.90;;;;;;4953374;29;20027;-76
2021/05/21 01:08:53;;;;;;;2.40;2.20;;;12.80;99.90;;;;;;4954995;29;20035;-75
2021/05/21 01:11:20;;;;;;;3.63;2.10;;;13.00;99.90;;;;;;4954972;28;20031;-77
2021/05/21 01:13:46;;;;;;;2.38;2.17;;;12.60;99.90;;;;;;4954925;28;20027;-80
2021/05/21 01:16:12;;;;;;;2.38;2.17;;;12.60;99.90;;;;;;4954878;28;20027;-78
2021/05/21 01:18:37;;;;;;;2.38;2.17;;;12.70;99.90;;;;;;4953749;29;20042;-78
2021/05/21 01:21:04;;;;;;;2.35;2.15;;;12.60;99.90;;;;;;4953372;29;20043;-75
2021/05/21 01:23:29;;;;;;;2.45;2.25;;;12.70;99.90;;;;;;4953414;28;20118;-82
2021/05/21 01:25:55;;;;;;;3.67;2.25;;;12.70;99.90;;;;;;4953151;29;20480;-77
2021/05/21 01:28:22;;;;;;;2.30;2.10;;;12.70;99.90;;;;;;4953587;29;20024;-77
2021/05/21 01:30:48;;;;;;;3.40;2.25;;;12.50;99.90;;;;;;4955131;29;20171;-81
2021/05/21 01:33:14;;;;;;;2.67;2.30;;;12.40;99.90;;;;;;4955202;28;20024;-75
2021/05/21 01:35:41;;;;;;;2.40;2.20;;;12.50;99.90;;;;;;4954752;28;20155;-82
2021/05/21 01:38:07;;;;;;;2.20;2.00;;;12.50;99.90;;;;;;4954682;28;20067;-74
2021/05/21 01:40:36;;;;;;;2.78;2.35;;;12.70;99.90;;;;;;4954855;28;20038;-77
2021/05/21 01:43:03;;;;;;;2.45;2.20;;;12.50;99.90;;;;;;4954334;28;20034;-76
2021/05/21 01:45:29;;;;;;;2.53;2.13;;;12.40;99.90;;;;;;4954551;28;20158;-81
2021/05/21 01:47:59;;;;;;;2.45;2.25;;;12.40;99.90;;;;;;4954443;28;20069;-77
2021/05/21 01:50:25;;;;;;;2.80;2.10;;;12.30;99.90;;;;;;4954328;29;20023;-74
2021/05/21 01:52:51;;;;;;;2.40;2.20;;;12.10;99.90;;;;;;4954063;29;20031;-86
2021/05/21 01:55:17;;;;;;;2.40;2.20;;;12.00;99.90;;;;;;4954504;29;20046;-75
2021/05/21 01:57:43;;;;;;;4.28;2.40;;;12.50;99.90;;;;;;4937035;29;20031;-84
2021/05/21 02:00:12;;;;;;;5.53;2.33;;;12.20;99.90;;;;;;4954175;29;20387;-85
2021/05/21 02:02:39;;;;;;;3.78;2.35;;;12.10;99.90;;;;;;4949832;29;20114;-75
2021/05/21 02:05:07;;;;;;;2.40;2.20;;;12.00;99.90;;;;;;4936969;29;20031;-77
2021/05/21 02:07:33;;;;;;;2.45;2.25;;;12.10;99.90;;;;;;4953597;29;20043;-76
2021/05/21 02:10:02;;;;;;;2.40;2.20;;;12.20;99.90;;;;;;4954160;29;20022;-79
2021/05/21 02:12:30;;;;;;;2.70;2.28;;;12.00;99.90;;;;;;4954025;29;20120;-76
2021/05/21 02:14:58;;;;;;;2.42;2.22;;;12.30;99.90;;;;;;4936435;29;20110;-81
2021/05/21 02:17:25;;;;;;;2.78;2.30;;;12.20;99.90;;;;;;4953860;29;20035;-76
2021/05/21 02:19:55;;;;;;;3.83;2.33;;;12.30;99.90;;;;;;4953720;29;20034;-77
2021/05/21 02:22:22;;;;;;;2.50;2.30;;;12.30;99.90;;;;;;4953695;29;20027;-83
2021/05/21 02:24:49;;;;;;;2.70;2.30;;;12.30;99.90;;;;;;4953812;29;20022;-81
2021/05/21 02:27:15;;;;;;;3.05;2.83;;;12.30;99.90;;;;;;4953272;29;20061;-76
2021/05/21 02:29:41;;;;;;;2.30;2.10;;;12.40;99.90;;;;;;4920604;29;20142;-78
2021/05/21 02:32:06;;;;;;;2.28;2.08;;;12.50;99.90;;;;;;4953609;29;20091;-77
2021/05/21 02:34:32;;;;;;;2.60;2.40;;;12.60;99.90;;;;;;4953649;28;20062;-77
2021/05/21 02:36:58;;;;;;;2.70;2.40;;;12.50;99.90;;;;;;4952406;28;20051;-77
2021/05/21 02:39:24;;;;;;;2.28;2.08;;;12.40;99.90;;;;;;4936582;29;20062;-75
2021/05/21 02:41:50;;;;;;;2.60;2.28;;;12.20;99.90;;;;;;4936369;29;20059;-78
2021/05/21 02:44:16;;;;;;;2.50;2.30;;;12.50;99.90;;;;;;4953246;29;20027;-77
2021/05/21 02:46:41;;;;;;;2.40;2.20;;;12.70;99.90;;;;;;4950149;29;20023;-75
2021/05/21 02:49:07;;;;;;;2.63;2.20;;;12.60;99.90;;;;;;4934667;29;20036;-77
2021/05/21 02:51:33;;;;;;;2.40;2.20;;;12.80;99.90;;;;;;4916874;29;20042;-76
2021/05/21 02:53:59;;;;;;;2.35;2.10;;;12.70;99.90;;;;;;4945256;29;20138;-76
2021/05/21 02:56:24;;;;;;;3.88;2.30;;;12.40;99.90;;;;;;4953628;29;20035;-75
2021/05/21 02:58:50;;;;;;;3.00;2.20;;;12.50;99.90;;;;;;4953091;28;20070;-77
2021/05/21 03:01:16;;;;;;;2.60;2.40;;;12.70;99.90;;;;;;4951957;29;20062;-77
2021/05/21 03:03:41;;;;;;;2.28;2.08;;;12.40;99.90;;;;;;4953613;28;20062;-75
2021/05/21 03:06:07;;;;;;;2.40;2.20;;;12.40;99.90;;;;;;4953391;29;20054;-75
2021/05/21 03:08:33;;;;;;;2.95;2.20;;;12.40;99.90;;;;;;4953429;29;20436;-80
2021/05/21 03:10:59;;;;;;;2.25;2.05;;;12.40;99.90;;;;;;4953415;28;20427;-78
2021/05/21 03:13:25;;;;;;;2.50;2.30;;;12.50;99.90;;;;;;4953361;28;20483;-78
2021/05/21 03:15:51;;;;;;;2.30;2.10;;;12.50;99.90;;;;;;4951771;29;20032;-80
2021/05/21 03:18:18;;;;;;;2.30;2.10;;;12.40;99.90;;;;;;4953245;28;20035;-78
2021/05/21 03:20:44;;;;;;;3.40;2.30;;;12.60;99.90;;;;;;4953281;28;20042;-76
2021/05/21 03:23:11;;;;;;;2.58;2.22;;;12.50;99.90;;;;;;4951599;29;20078;-76
2021/05/21 03:25:40;;;;;;;3.58;2.10;;;12.40;99.90;;;;;;4951739;29;20031;-75
2021/05/21 03:28:06;;;;;;;2.40;2.20;;;12.40;99.90;;;;;;4953110;28;20023;-77
2021/05/21 03:30:33;;;;;;;2.63;2.38;;;12.50;99.90;;;;;;4952296;29;20502;-78
2021/05/21 03:32:59;;;;;;;2.30;2.10;;;12.70;99.90;;;;;;4953313;28;20043;-81
2021/05/21 03:35:25;;;;;;;2.40;2.20;;;12.80;99.90;;;;;;4953057;28;20110;-76
2021/05/21 03:37:51;;;;;;;2.50;2.30;;;13.00;99.90;;;;;;4951869;29;20111;-76
2021/05/21 03:40:17;;;;;;;2.90;2.30;;;13.10;99.90;;;;;;4953023;28;20042;-77
2021/05/21 03:42:43;;;;;;;2.40;2.20;;;13.00;99.90;;;;;;4951888;29;20054;-75
2021/05/21 03:45:09;;;;;;;2.40;2.20;;;13.00;99.90;;;;;;4952477;28;20024;-76
2021/05/21 03:47:35;;;;;;;2.40;2.13;;;13.10;99.90;;;;;;4954181;28;20062;-77
2021/05/21 03:50:01;;;;;;;2.40;2.20;;;13.10;99.90;;;;;;4956588;29;20028;-77
2021/05/21 03:52:27;;;;;;;4.43;2.10;;;13.20;99.90;;;;;;4956551;29;20027;-74
2021/05/21 03:54:53;;;;;;;2.40;2.17;;;13.10;99.90;;;;;;4956348;29;20082;-76
2021/05/21 03:57:22;;;;;;;2.30;2.10;;;13.20;99.90;;;;;;4956456;29;20538;-78
2021/05/21 03:59:49;;;;;;;2.78;2.20;;;13.20;99.90;;;;;;4956238;29;20023;-75
2021/05/21 04:02:16;;;;;;;2.40;2.20;;;13.20;99.90;;;;;;4939118;29;20107;-76
2021/05/21 04:04:42;;;;;;;2.45;2.25;;;13.20;99.90;;;;;;4956014;29;20464;-76
2021/05/21 04:07:07;;;;;;;2.60;2.40;;;13.20;99.90;;;;;;4956193;29;20027;-76
2021/05/21 04:09:33;;;;;;;2.67;2.30;;;13.30;99.90;;;;;;4955934;29;20055;-74
2021/05/21 04:11:59;;;;;;;2.30;2.10;;;13.30;99.90;;;;;;4939115;29;20115;-74
2021/05/21 04:14:25;;;;;;;2.40;2.20;;;13.40;99.90;;;;;;4908631;29;20035;-76
2021/05/21 04:16:51;;;;;;;4.13;2.20;;;13.40;99.90;;;;;;4936510;29;20024;-75
2021/05/21 04:19:17;;;;;;;2.40;2.20;;;13.40;99.90;;;;;;4919711;29;20467;-76
2021/05/21 04:21:43;;;;;;;2.80;2.30;;;13.40;99.90;;;;;;4936814;29;20046;-75
2021/05/21 04:24:10;;;;;;;3.90;2.30;;;13.40;99.90;;;;;;4936333;29;20065;-79
2021/05/21 04:26:36;;;;;;;3.35;2.30;;;13.50;99.90;;;;;;4936764;29;20502;-76
2021/05/21 04:29:03;;;;;;;4.57;3.05;;;13.50;99.90;;;;;;4936708;29;20031;-76
2021/05/21 04:31:29;;;;;;;2.60;2.40;;;13.50;99.90;;;;;;4936462;29;20024;-76
2021/05/21 04:33:55;;;;;;;3.08;2.38;;;13.60;99.90;;;;;;4919736;29;20038;-79
2021/05/21 04:36:21;;;;;;;3.13;2.50;;;13.70;99.90;;;;;;4936904;29;20067;-75
2021/05/21 04:38:47;;;;;;;5.35;2.50;;;13.70;99.90;;;;;;4919336;29;20395;-76
2021/05/21 04:41:13;;;;;;;3.40;2.55;;;13.60;99.90;;;;;;4936545;29;20047;-76
2021/05/21 04:43:39;;;;;;;3.25;2.58;;;13.70;99.90;;;;;;4936339;29;20464;-77
2021/05/21 04:46:06;;;;;;;2.60;2.40;;;13.70;99.90;;;;;;4936580;29;20440;-77
2021/05/21 04:48:32;;;;;;;2.85;2.38;;;13.70;99.90;;;;;;4936631;29;20027;-76
2021/05/21 04:50:58;;;;;;;4.97;2.40;;;13.90;99.90;;;;;;4936311;29;20036;-77
2021/05/21 04:53:24;;;;;;;2.80;2.38;;;13.80;99.90;;;;;;4942872;29;20051;-75
2021/05/21 04:55:50;;;;;;;4.53;2.63;;;13.70;99.90;;;;;;4955103;28;20106;-78
2021/05/21 04:58:16;;;;;;;2.90;2.60;;;13.90;99.90;;;;;;4955370;28;20412;-77
2021/05/21 05:00:42;;;;;;;4.38;2.60;;;13.90;99.90;;;;;;4954396;28;20042;-79
2021/05/21 05:03:10;;;;;;;6.85;2.60;;;13.90;99.90;;;;;;4953927;29;20130;-76
2021/05/21 05:05:36;;;;;;;4.30;2.60;;;14.00;99.90;;;;;;4954961;28;20073;-79
2021/05/21 05:08:02;;;;;;;3.40;2.70;;;14.10;99.90;;;;;;4955109;28;20050;-76
2021/05/21 05:10:31;;;;;;;3.97;2.50;;;14.10;99.90;;;;;;4954793;28;20030;-74
2021/05/21 05:12:57;;;;;;;3.30;2.70;;;14.10;99.90;;;;;;4954772;29;20046;-75
2021/05/21 05:15:23;;;;;;;5.13;3.05;;;14.20;99.90;;;;;;4953516;29;20034;-75
2021/05/21 05:17:51;;;;;;;4.82;2.80;;;14.20;99.90;;;;;;4953380;29;20027;-80
2021/05/21 05:20:23;;;;;;;3.38;2.85;;;14.30;99.90;;;;;;4955085;28;20125;-75
2021/05/21 05:22:51;;;;;;;4.18;2.97;;;14.30;99.90;;;;;;4953679;29;20071;-75
2021/05/21 05:25:17;;;;;;;6.00;3.00;;;14.10;99.90;;;;;;4953227;29;20505;-85
2021/05/21 05:27:43;;;;;;;3.75;2.72;;;14.10;99.90;;;;;;4954636;29;20043;-79
2021/05/21 05:30:09;;;;;;;4.63;3.10;;;14.20;99.90;;;;;;4954474;29;20034;-73
2021/05/21 05:32:35;;;;;;;3.88;2.92;;;14.20;99.90;;;;;;4954540;28;20034;-76
2021/05/21 05:35:00;;;;;;;4.75;3.30;;;14.10;99.90;;;;;;4949307;28;20027;-78
2021/05/21 05:37:26;;;;;;;4.60;3.13;;;14.10;99.90;;;;;;4955043;29;20034;-75
2021/05/21 05:39:52;;;;;;;22.90;16.73;;;14.30;99.90;;;;;;4953881;29;20102;-73
2021/05/21 05:42:18;;;;;;;16.08;10.38;;;14.50;99.90;;;;;;4954411;29;20039;-76
2021/05/21 05:44:43;;;;;;;12.65;7.28;;;14.70;99.90;;;;;;4953201;29;20117;-75
2021/05/21 05:47:09;;;;;;;5.50;3.47;;;14.40;99.90;;;;;;4953823;29;20031;-82
2021/05/21 05:49:35;;;;;;;5.80;3.40;;;14.30;99.90;;;;;;4953791;29;20489;-75
2021/05/21 05:52:00;;;;;;;4.70;3.20;;;14.40;99.90;;;;;;4953292;29;20024;-76
2021/05/21 05:54:29;;;;;;;5.97;3.28;;;14.60;99.90;;;;;;4941760;29;20976;-76
2021/05/21 05:56:55;;;;;;;4.47;3.08;;;14.70;99.90;;;;;;4919245;29;20032;-75
2021/05/21 05:59:21;;;;;;;3.88;2.75;;;14.70;99.90;;;;;;4931670;29;20043;-75
2021/05/21 06:01:46;;;;;;;3.88;2.78;;;14.60;99.90;;;;;;4933412;29;20035;-75
2021/05/21 06:04:12;;;;;;;4.88;3.10;;;14.50;99.90;;;;;;4931296;29;20088;-75
2021/05/21 06:06:38;;;;;;;5.82;3.17;;;14.60;99.90;;;;;;4909664;29;20055;-77
2021/05/21 06:09:06;;;;;;;4.03;3.05;;;14.80;99.90;;;;;;4931205;29;20027;-77
2021/05/21 06:11:32;;;;;;;4.88;3.00;;;14.70;99.90;;;;;;4933799;29;20027;-74
2021/05/21 06:13:58;;;;;;;5.90;3.33;;;14.70;99.90;;;;;;4929575;29;20049;-76
2021/05/21 06:16:24;;;;;;;4.68;3.05;;;14.80;99.90;;;;;;4922678;29;20131;-78
2021/05/21 06:18:53;;;;;;;5.93;3.70;;;14.90;99.90;;;;;;4898538;29;20078;-77
2021/05/21 06:21:18;;;;;;;19.38;12.10;;;14.70;99.90;;;;;;4896292;29;20048;-76
2021/05/21 06:23:45;;;;;;;7.80;3.83;;;15.10;99.90;;;;;;4898122;29;20107;-74
2021/05/21 06:26:17;;;;;;;6.68;3.50;;;15.00;99.90;;;;;;4931620;29;20606;-77
2021/05/21 06:28:43;;;;;;;5.63;4.03;;;15.00;99.90;;;;;;4933877;29;20032;-76
2021/05/21 06:31:10;;;;;;;4.75;2.92;;;15.10;99.90;;;;;;4934034;29;20060;-80
2021/05/21 06:33:36;;;;;;;6.97;3.40;;;15.00;99.90;;;;;;4914279;29;20035;-84
2021/05/21 06:36:01;;;;;;;4.88;3.22;;;15.10;99.90;;;;;;4933951;29;20086;-78
2021/05/21 06:38:27;;;;;;;6.10;3.22;;;15.20;99.90;;;;;;4916630;29;20110;-76
2021/05/21 06:40:53;;;;;;;6.47;3.10;;;15.30;99.90;;;;;;4933803;29;20396;-78
2021/05/21 06:43:19;;;;;;;4.22;3.17;;;15.30;99.90;;;;;;4912609;29;20024;-79
2021/05/21 06:45:45;;;;;;;4.38;3.13;;;15.20;99.90;;;;;;4898391;29;20623;-81
2021/05/21 06:48:11;;;;;;;4.75;3.10;;;15.20;99.90;;;;;;4937378;29;20031;-79
2021/05/21 06:50:38;;;;;;;5.30;3.33;;;15.20;99.90;;;;;;4916259;29;20140;-86
2021/05/21 06:53:04;;;;;;;4.82;3.08;;;15.40;99.90;;;;;;4937789;29;20044;-78
2021/05/21 06:55:30;;;;;;;5.60;3.28;;;15.20;99.90;;;;;;4951394;29;20384;-79
2021/05/21 06:57:56;;;;;;;5.20;3.60;;;15.40;99.90;;;;;;4951353;28;20039;-79
2021/05/21 07:00:24;;;;;;;5.82;3.90;;;15.40;99.90;;;;;;4953788;28;20032;-82
2021/05/21 07:02:50;;;;;;;4.97;3.60;;;15.50;99.90;;;;;;4935634;29;20038;-75
2021/05/21 07:05:16;;;;;;;6.45;3.47;;;15.50;99.90;;;;;;4952900;28;20031;-80
2021/05/21 07:07:42;;;;;;;4.85;3.40;;;15.50;99.90;;;;;;4952804;28;20023;-79
2021/05/21 07:10:09;;;;;;;7.00;3.65;;;15.50;99.90;;;;;;4952409;28;20054;-78
2021/05/21 07:12:35;;;;;;;5.35;3.50;;;15.70;99.90;;;;;;4952044;29;20051;-78
2021/05/21 07:15:01;;;;;;;9.48;3.60;;;15.70;99.90;;;;;;4952888;29;20062;-77
2021/05/21 07:17:26;;;;;;;11.40;3.53;;;15.80;99.90;;;;;;4952828;29;20123;-80
2021/05/21 07:19:52;;;;;;;4.70;3.25;;;15.80;99.80;;;;;;4952966;29;20055;-78
2021/05/21 07:22:18;;;;;;;7.45;3.40;;;15.90;99.70;;;;;;4953198;28;20452;-80
2021/05/21 07:24:49;;;;;;;28.92;18.63;;;16.00;99.70;;;;;;4956154;29;20106;-82
2021/05/21 07:27:15;;;;;;;37.30;24.95;;;16.30;99.90;;;;;;4956785;28;20384;-84
2021/05/21 07:29:41;;;;;;;28.02;17.88;;;16.50;99.90;;;;;;4956573;29;20431;-81
2021/05/21 07:32:08;;;;;;;7.78;4.53;;;16.50;98.80;;;;;;4956421;29;20058;-75
2021/05/21 07:34:34;;;;;;;7.78;4.25;;;16.40;99.10;;;;;;4956076;29;20027;-77
2021/05/21 07:37:00;;;;;;;7.47;4.20;;;16.40;98.80;;;;;;4956230;29;20031;-79
2021/05/21 07:39:26;;;;;;;14.32;8.93;;;16.40;98.80;;;;;;4955668;29;20061;-77
2021/05/21 07:41:54;;;;;;;8.68;3.95;;;16.50;98.90;;;;;;4955963;29;20035;-76
2021/05/21 07:44:21;;;;;;;6.82;4.03;;;16.70;98.60;;;;;;4954898;28;20074;-80
2021/05/21 07:46:47;;;;;;;7.97;3.47;;;16.90;98.50;;;;;;4955122;28;20050;-78
2021/05/21 07:49:13;;;;;;;7.35;3.78;;;17.10;98.10;;;;;;4954903;28;20062;-77
2021/05/21 07:51:40;;;;;;;4.90;3.20;;;17.20;98.10;;;;;;4953207;29;20027;-78
2021/05/21 07:54:06;;;;;;;7.10;3.17;;;17.30;97.60;;;;;;4954112;28;20098;-79
2021/05/21 07:56:32;;;;;;;6.20;3.55;;;17.50;97.50;;;;;;4953598;29;20035;-76
2021/05/21 07:58:57;;;;;;;4.72;3.05;;;17.60;97.50;;;;;;4952582;29;20023;-80
2021/05/21 08:01:23;;;;;;;5.20;2.95;;;17.70;96.70;;;;;;4954075;28;20070;-76
2021/05/21 08:03:49;;;;;;;6.95;3.35;;;17.80;96.60;;;;;;4952659;29;20078;-80
2021/05/21 08:06:16;;;;;;;5.93;3.45;;;17.90;96.40;;;;;;4953251;28;20059;-81
2021/05/21 08:08:42;;;;;;;7.20;4.47;;;17.90;95.70;;;;;;4953779;28;20030;-79
2021/05/21 08:11:08;;;;;;;6.22;3.60;;;18.00;96.10;;;;;;4954006;28;20031;-78
2021/05/21 08:13:38;;;;;;;5.20;3.20;;;18.00;95.10;;;;;;4954453;29;20031;-75
2021/05/21 08:16:09;;;;;;;5.30;3.05;;;17.80;94.00;;;;;;4954542;29;20023;-83
2021/05/21 08:18:36;;;;;;;6.68;3.65;;;17.70;93.50;;;;;;4954391;29;20042;-81
2021/05/21 08:21:02;;;;;;;4.88;3.15;;;17.90;94.10;;;;;;4954400;29;20447;-78
2021/05/21 08:23:28;;;;;;;5.65;3.45;;;18.00;93.60;;;;;;4954417;29;20101;-78
2021/05/21 08:25:53;;;;;;;5.40;3.10;;;18.20;93.60;;;;;;4951896;29;20545;-80
2021/05/21 08:28:19;;;;;;;6.10;3.30;;;18.20;94.00;;;;;;4953949;28;20023;-80
2021/05/21 08:30:45;;;;;;;6.85;2.88;;;18.30;93.50;;;;;;4953715;28;20019;-77
2021/05/21 08:33:13;;;;;;;6.50;3.30;;;17.70;92.80;;;;;;4953299;28;20095;-78
2021/05/21 08:35:38;;;;;;;4.97;2.97;;;17.90;93.00;;;;;;4952966;28;20027;-78
2021/05/21 08:38:04;;;;;;;11.43;8.32;;;18.00;92.30;;;;;;4953694;28;20023;-79
2021/05/21 08:40:36;;;;;;;13.15;9.25;;;18.10;93.40;;;;;;4951076;29;20039;-85
2021/05/21 08:43:08;;;;;;;4.80;2.95;;;18.10;91.00;;;;;;4953411;28;20058;-77
2021/05/21 08:45:34;;;;;;;12.63;2.97;;;17.60;91.50;;;;;;4954008;28;20058;-79
2021/05/21 08:48:02;;;;;;;5.40;3.10;;;17.90;91.80;;;;;;4952351;29;20063;-78
2021/05/21 08:50:28;;;;;;;9.70;3.05;;;18.10;90.70;;;;;;4953623;29;20024;-77
2021/05/21 08:52:54;;;;;;;6.25;3.08;;;18.20;90.30;;;;;;4928745;28;718085;-79
2021/05/21 08:55:21;;;;;;;6.55;2.83;;;18.30;90.10;;;;;;4953851;28;20110;-77
2021/05/21 08:57:47;;;;;;;6.10;2.95;;;18.40;89.60;;;;;;4954636;28;20408;-78
2021/05/21 09:00:14;;;;;;;4.70;3.00;;;18.50;87.30;;;;;;4954762;28;20530;-79
2021/05/21 09:02:41;;;;;;;8.18;3.10;;;18.80;87.20;;;;;;4954506;28;20395;-76
2021/05/21 09:05:09;;;;;;;5.50;2.88;;;18.70;85.80;;;;;;4953451;28;20035;-80
2021/05/21 09:07:39;;;;;;;7.10;2.80;;;18.70;84.70;;;;;;4953534;28;20697;-78
2021/05/21 09:10:13;;;;;;;6.45;2.65;;;19.10;85.50;;;;;;4953139;28;20103;-78
2021/05/21 09:12:48;;;;;;;6.05;2.58;;;19.30;82.70;;;;;;4951335;29;20093;-80
2021/05/21 09:15:22;;;;;;;7.03;2.50;;;19.30;81.80;;;;;;4952535;28;20023;-81
2021/05/21 09:17:54;;;;;;;5.75;2.70;;;19.50;79.20;;;;;;4953367;28;20028;-77
2021/05/21 09:20:35;;;;;;;4.53;2.70;;;19.80;77.10;;;;;;4952324;29;20242;-78
2021/05/21 09:23:07;;;;;;;5.47;2.40;;;19.80;76.40;;;;;;4951855;29;20023;-76
2021/05/21 09:25:40;;;;;;;5.97;2.90;;;19.80;76.60;;;;;;4954122;28;20031;-82
2021/05/21 09:28:27;;;;;;;5.20;2.80;;;19.50;75.80;;;;;;4950636;29;20390;-75
2021/05/21 09:31:09;;;;;;;5.65;2.28;;;19.70;76.80;;;;;;4951851;29;20030;-80
2021/05/21 09:33:36;;;;;;;7.38;2.70;;;19.50;75.00;;;;;;4954144;28;20102;-79
2021/05/21 09:36:03;;;;;;;7.13;3.00;;;19.70;75.30;;;;;;4953931;28;20095;-77
2021/05/21 09:38:50;;;;;;;7.90;3.28;;;19.80;75.50;;;;;;4954602;28;20020;-79
2021/05/21 09:41:16;;;;;;;8.90;4.95;;;19.60;75.50;;;;;;4953751;29;20549;-81
2021/05/21 09:43:48;;;;;;;11.15;4.95;;;20.10;74.80;;;;;;4955227;28;20058;-88
2021/05/21 09:46:14;;;;;;;7.30;3.22;;;20.50;74.30;;;;;;4948060;29;20031;-78
2021/05/21 09:48:39;;;;;;;5.75;2.13;;;20.80;71.20;;;;;;4954127;28;20082;-81
2021/05/21 09:51:05;;;;;;;6.05;2.20;;;20.40;72.80;;;;;;4953248;28;20039;-75
2021/05/21 09:53:33;;;;;;;4.13;2.00;;;20.30;71.90;;;;;;4958160;28;20121;-77
2021/05/21 09:56:02;;;;;;;6.47;2.10;;;20.20;70.80;;;;;;4959396;28;20027;-82
2021/05/21 09:58:33;;;;;;;6.10;2.40;;;19.90;71.80;;;;;;4962728;28;20019;-80
2021/05/21 10:01:12;;;;;;;6.45;2.25;;;19.50;72.10;;;;;;4959996;28;20407;-84
2021/05/21 10:03:40;;;;;;;6.20;2.47;;;19.40;72.80;;;;;;4960477;28;20037;-79
2021/05/21 10:06:06;;;;;;;6.93;2.10;;;19.90;73.00;;;;;;4960072;28;20371;-80
2021/05/21 10:08:32;;;;;;;5.13;2.60;;;20.30;71.00;;;;;;4961585;28;20038;-77
2021/05/21 10:10:58;;;;;;;5.30;2.00;;;21.00;70.60;;;;;;4963654;28;20109;-86
2021/05/21 10:13:25;;;;;;;6.25;2.20;;;21.10;68.10;;;;;;4960230;28;20020;-81
2021/05/21 10:15:51;;;;;;;5.88;2.50;;;21.30;68.40;;;;;;4961986;28;20023;-76
2021/05/21 10:18:17;;;;;;;5.32;2.03;;;21.50;67.70;;;;;;4960157;28;20036;-78
2021/05/21 10:20:44;;;;;;;7.20;1.95;;;21.40;67.50;;;;;;4955148;28;20042;-82
2021/05/21 10:23:17;;;;;;;4.00;1.95;;;21.30;66.50;;;;;;4945573;29;20023;-79
2021/05/21 10:25:43;;;;;;;3.75;1.92;;;21.30;67.30;;;;;;4953384;28;20034;-76
2021/05/21 10:28:10;;;;;;;5.40;2.35;;;21.60;66.90;;;;;;4962362;28;20031;-80
2021/05/21 10:30:36;;;;;;;4.75;1.58;;;21.00;67.70;;;;;;4944395;28;20030;-76
2021/05/21 10:33:12;;;;;;;4.43;2.15;;;21.40;67.10;;;;;;4964062;28;20034;-79
2021/05/21 10:35:39;;;;;;;4.32;1.95;;;21.90;67.30;;;;;;4953658;28;20044;-83
2021/05/21 10:38:25;;;;;;;2.92;1.70;;;22.20;64.90;;;;;;4935886;29;20106;-80
2021/05/21 10:41:17;;;;;;;6.28;1.80;;;21.60;63.40;;;;;;4935744;29;20118;-87
2021/05/21 10:43:50;;;;;;;5.97;1.85;;;21.10;64.60;;;;;;4952098;29;20027;-85
2021/05/21 10:46:20;;;;;;;2.95;1.77;;;21.50;65.60;;;;;;4952783;29;20038;-82
2021/05/21 10:48:58;;;;;;;3.85;1.90;;;22.00;63.80;;;;;;4953653;29;20023;-80
2021/05/21 10:51:26;;;;;;;6.05;1.80;;;22.50;62.70;;;;;;4952687;29;20031;-82
2021/05/21 10:54:35;;;;;;;5.40;2.78;;;22.00;61.90;;;;;;4952911;28;20126;-81
2021/05/21 10:57:14;;;;;;;5.40;1.60;;;21.60;62.20;;;;;;4859187;29;20077;-76
2021/05/21 10:59:52;;;;;;;6.18;2.13;;;20.50;62.90;;;;;;4875310;29;20032;-77
2021/05/21 11:02:21;;;;;;;5.65;1.83;;;20.70;62.60;;;;;;4927028;28;20055;-82
2021/05/21 11:04:47;;;;;;;4.63;1.88;;;20.40;64.30;;;;;;4953061;28;20590;-79
2021/05/21 11:07:37;;;;;;;3.13;1.80;;;20.10;64.70;;;;;;4953086;28;20081;-78
2021/05/21 11:10:04;;;;;;;3.70;1.90;;;21.20;64.70;;;;;;4953023;28;20024;-78
2021/05/21 11:12:52;;;;;;;4.57;1.73;;;21.80;61.80;;;;;;4953123;28;20470;-77
2021/05/21 11:15:33;;;;;;;5.25;1.92;;;20.60;62.90;;;;;;4953420;28;20434;-80
2021/05/21 11:18:17;;;;;;;3.97;1.95;;;20.00;65.60;;;;;;4952754;29;20031;-81
2021/05/21 11:21:04;;;;;;;4.20;1.58;;;20.20;64.80;;;;;;4952633;28;20159;-81
2021/05/21 11:23:36;;;;;;;5.20;1.70;;;20.60;64.80;;;;;;4953199;28;20075;-81
2021/05/21 11:26:13;;;;;;;7.65;2.60;;;20.80;62.20;;;;;;4952806;28;20027;-76
2021/05/21 11:28:44;;;;;;;5.72;2.22;;;21.10;64.60;;;;;;4953126;28;20529;-79
2021/05/21 11:31:15;;;;;;;5.22;1.90;;;21.10;64.30;;;;;;4952646;29;20047;-82
2021/05/21 11:33:47;;;;;;;11.07;2.63;;;21.70;63.00;;;;;;4953171;28;20086;-79
2021/05/21 11:36:13;;;;;;;5.35;1.90;;;22.20;61.80;;;;;;4952003;28;20038;-84
2021/05/21 11:38:40;;;;;;;6.25;1.98;;;22.30;61.70;;;;;;4952404;28;20527;-84
2021/05/21 11:41:07;;;;;;;6.05;2.90;;;22.20;61.20;;;;;;4953552;29;20047;-93
2021/05/21 11:43:37;;;;;;;6.20;1.80;;;22.10;61.30;;;;;;4955212;28;20243;-76
2021/05/21 11:46:03;;;;;;;8.57;2.30;;;22.30;60.80;;;;;;4951975;28;20035;-78
2021/05/21 11:48:36;;;;;;;12.38;7.38;;;22.10;60.10;;;;;;4952139;28;20115;-82
2021/05/21 11:51:08;;;;;;;4.97;2.15;;;22.10;59.50;;;;;;4952105;29;20031;-82
2021/05/21 11:53:55;;;;;;;3.95;1.92;;;21.10;59.40;;;;;;4953563;29;20051;-88
2021/05/21 11:56:34;;;;;;;8.50;2.00;;;21.20;59.30;;;;;;4954093;29;20103;-85
2021/05/21 11:59:06;;;;;;;4.20;1.80;;;21.50;60.60;;;;;;4953724;29;20031;-91
2021/05/21 12:01:34;;;;;;;9.13;1.90;;;21.40;59.60;;;;;;4953649;29;20043;-88
2021/05/21 12:04:09;;;;;;;6.20;2.80;;;21.50;59.40;;;;;;4954560;29;20036;-83
2021/05/21 12:06:41;;;;;;;6.53;2.17;;;21.90;59.80;;;;;;4954296;29;20032;-80
2021/05/21 12:09:08;;;;;;;4.03;1.90;;;21.60;60.50;;;;;;4938044;29;20383;-85
2021/05/21 12:11:34;;;;;;;2.75;1.70;;;21.20;60.80;;;;;;4956589;29;20379;-89
2021/05/21 12:14:05;;;;;;;4.28;1.77;;;21.10;60.10;;;;;;4957260;29;20027;-88
2021/05/21 12:16:31;;;;;;;;;;;21.30;60.50;;;;;;4958221;29;20038;-78
2021/05/21 12:18:58;;;;;;;4.28;1.70;;;21.10;58.50;;;;;;4958242;29;19977;-85
2021/05/21 12:21:31;;;;;;;5.22;1.48;;;21.40;57.90;;;;;;4956375;29;20146;-89
2021/05/21 12:23:58;;;;;;;3.90;1.70;;;21.30;57.80;;;;;;4958436;29;20382;-80
2021/05/21 12:26:27;;;;;;;6.88;2.17;;;21.00;57.80;;;;;;4959761;29;20090;-89
2021/05/21 12:28:54;;;;;;;3.65;1.50;;;21.20;58.50;;;;;;4958311;29;20031;-87
2021/05/21 12:31:48;;;;;;;7.53;1.83;;;21.10;58.20;;;;;;4956232;29;20031;-84
2021/05/21 12:34:21;;;;;;;3.60;1.88;;;21.20;57.70;;;;;;4956817;28;20094;-78
2021/05/21 12:37:06;;;;;;;2.92;1.48;;;21.40;58.10;;;;;;4956761;29;20455;-77
2021/05/21 12:39:44;;;;;;;4.22;1.80;;;21.50;57.90;;;;;;4956311;29;20050;-84
2021/05/21 12:42:15;;;;;;;2.95;1.60;;;21.30;57.70;;;;;;4956273;29;20491;-88
2021/05/21 12:44:48;;;;;;;4.68;2.03;;;21.00;57.90;;;;;;4956690;29;20027;-88
2021/05/21 12:47:15;;;;;;;7.65;2.00;;;21.00;58.20;;;;;;4955754;29;20035;-89
2021/05/21 12:49:46;;;;;;;4.72;1.95;;;21.30;58.20;;;;;;4941173;29;20028;-87